sensor_id;sensor_type;location;lat;lon;timestamp;P1;durP1;ratioP1;P2;durP2;ratioP2
14704;SDS011;7442;50.840;3.396;2022-11-15T00:02:00;18.27;;;15.38;;
14704;SDS011;7442;50.840;3.396;2022-11-15T00:04:31;16.17;;;13.15;;
14704;SDS011;7442;50.840;3.396;2022-11-15T00:07:02;16.02;;;14.05;;
14704;SDS011;7442;50.840;3.396;2022-11-15T00:09:32;17.95;;;14.47;;
14704;SDS011;7442;50.840;3.396;2022-11-15T00:12:02;17.35;;;13.15;;
14704;SDS011;7442;50.840;3.396;2022-11-15T00:14:33;13.60;;;12.18;;
14704;SDS011;7442;50.840;3.396;2022-11-15T00:17:05;13.30;;;11.88;;
14704;SDS011;7442;50.840;3.396;2022-11-15T00:19:35;16.05;;;11.83;;
14704;SDS011;7442;50.840;3.396;2022-11-15T00:22:05;16.00;;;12.00;;
14704;SDS011;7442;50.840;3.396;2022-11-15T00:24:35;12.82;;;10.45;;
14704;SDS011;7442;50.840;3.396;2022-11-15T00:27:05;14.90;;;11.22;;
14704;SDS011;7442;50.840;3.396;2022-11-15T00:29:35;11.65;;;10.40;;
14704;SDS011;7442;50.840;3.396;2022-11-15T00:32:06;11.60;;;9.93;;
14704;SDS011;7442;50.840;3.396;2022-11-15T00:34:36;11.70;;;9.85;;
14704;SDS011;7442;50.840;3.396;2022-11-15T00:37:06;11.22;;;9.80;;
14704;SDS011;7442;50.840;3.396;2022-11-15T00:39:36;10.15;;;8.70;;
14704;SDS011;7442;50.840;3.396;2022-11-15T00:42:06;11.00;;;8.90;;
14704;SDS011;7442;50.840;3.396;2022-11-15T00:44:36;9.40;;;8.45;;
14704;SDS011;7442;50.840;3.396;2022-11-15T00:47:06;11.90;;;8.88;;
14704;SDS011;7442;50.840;3.396;2022-11-15T00:49:36;10.58;;;8.63;;
14704;SDS011;7442;50.840;3.396;2022-11-15T00:52:06;9.98;;;8.65;;
14704;SDS011;7442;50.840;3.396;2022-11-15T00:54:37;9.25;;;7.72;;
14704;SDS011;7442;50.840;3.396;2022-11-15T00:57:07;9.88;;;8.15;;
14704;SDS011;7442;50.840;3.396;2022-11-15T00:59:38;8.05;;;7.25;;
14704;SDS011;7442;50.840;3.396;2022-11-15T01:02:08;10.50;;;7.15;;
14704;SDS011;7442;50.840;3.396;2022-11-15T01:04:38;8.68;;;7.40;;
14704;SDS011;7442;50.840;3.396;2022-11-15T01:07:08;9.45;;;7.65;;
14704;SDS011;7442;50.840;3.396;2022-11-15T01:09:38;8.10;;;7.05;;
14704;SDS011;7442;50.840;3.396;2022-11-15T01:12:08;7.70;;;6.62;;
14704;SDS011;7442;50.840;3.396;2022-11-15T01:14:38;8.78;;;7.00;;
14704;SDS011;7442;50.840;3.396;2022-11-15T01:17:08;6.92;;;6.05;;
14704;SDS011;7442;50.840;3.396;2022-11-15T01:19:38;8.15;;;6.70;;
14704;SDS011;7442;50.840;3.396;2022-11-15T01:22:08;6.33;;;5.72;;
14704;SDS011;7442;50.840;3.396;2022-11-15T01:24:38;6.85;;;6.15;;
14704;SDS011;7442;50.840;3.396;2022-11-15T01:27:08;8.10;;;6.17;;
14704;SDS011;7442;50.840;3.396;2022-11-15T01:29:40;6.70;;;5.65;;
14704;SDS011;7442;50.840;3.396;2022-11-15T01:32:10;6.25;;;5.47;;
14704;SDS011;7442;50.840;3.396;2022-11-15T01:34:40;6.20;;;5.60;;
14704;SDS011;7442;50.840;3.396;2022-11-15T01:37:10;6.03;;;5.42;;
14704;SDS011;7442;50.840;3.396;2022-11-15T01:39:40;6.53;;;5.75;;
14704;SDS011;7442;50.840;3.396;2022-11-15T01:42:13;6.50;;;5.83;;
14704;SDS011;7442;50.840;3.396;2022-11-15T01:44:50;5.95;;;5.35;;
14704;SDS011;7442;50.840;3.396;2022-11-15T01:47:27;6.42;;;5.30;;
14704;SDS011;7442;50.840;3.396;2022-11-15T01:50:05;5.90;;;5.30;;
14704;SDS011;7442;50.840;3.396;2022-11-15T01:52:32;6.00;;;5.12;;
14704;SDS011;7442;50.840;3.396;2022-11-15T01:57:40;5.47;;;4.70;;
14704;SDS011;7442;50.840;3.396;2022-11-15T02:00:13;5.12;;;4.62;;
14704;SDS011;7442;50.840;3.396;2022-11-15T02:02:43;5.90;;;4.80;;
14704;SDS011;7442;50.840;3.396;2022-11-15T02:05:14;5.33;;;4.60;;
14704;SDS011;7442;50.840;3.396;2022-11-15T02:07:45;5.85;;;4.45;;
14704;SDS011;7442;50.840;3.396;2022-11-15T02:10:18;5.53;;;4.55;;
14704;SDS011;7442;50.840;3.396;2022-11-15T02:12:50;5.70;;;4.70;;
14704;SDS011;7442;50.840;3.396;2022-11-15T02:15:21;4.78;;;4.25;;
14704;SDS011;7442;50.840;3.396;2022-11-15T02:18:08;5.50;;;4.30;;
14704;SDS011;7442;50.840;3.396;2022-11-15T02:20:51;6.20;;;4.37;;
14704;SDS011;7442;50.840;3.396;2022-11-15T02:23:27;4.90;;;4.10;;
14704;SDS011;7442;50.840;3.396;2022-11-15T02:29:05;5.03;;;4.05;;
14704;SDS011;7442;50.840;3.396;2022-11-15T02:31:45;4.75;;;3.80;;
14704;SDS011;7442;50.840;3.396;2022-11-15T02:34:25;4.87;;;3.95;;
14704;SDS011;7442;50.840;3.396;2022-11-15T02:37:15;5.15;;;3.77;;
14704;SDS011;7442;50.840;3.396;2022-11-15T02:39:51;4.28;;;3.62;;
14704;SDS011;7442;50.840;3.396;2022-11-15T02:42:30;3.80;;;3.50;;
14704;SDS011;7442;50.840;3.396;2022-11-15T02:45:35;5.25;;;3.72;;
14704;SDS011;7442;50.840;3.396;2022-11-15T02:48:01;3.67;;;3.30;;
14704;SDS011;7442;50.840;3.396;2022-11-15T02:50:35;3.90;;;3.45;;
14704;SDS011;7442;50.840;3.396;2022-11-15T02:53:09;4.15;;;3.75;;
14704;SDS011;7442;50.840;3.396;2022-11-15T02:55:46;4.42;;;3.83;;
14704;SDS011;7442;50.840;3.396;2022-11-15T03:01:19;4.40;;;3.50;;
14704;SDS011;7442;50.840;3.396;2022-11-15T03:04:54;5.10;;;3.60;;
14704;SDS011;7442;50.840;3.396;2022-11-15T03:06:55;6.37;;;3.62;;
14704;SDS011;7442;50.840;3.396;2022-11-15T03:12:09;3.67;;;3.22;;
14704;SDS011;7442;50.840;3.396;2022-11-15T03:17:43;3.20;;;2.87;;
14704;SDS011;7442;50.840;3.396;2022-11-15T03:20:13;3.37;;;3.08;;
14704;SDS011;7442;50.840;3.396;2022-11-15T03:22:45;3.65;;;2.90;;
14704;SDS011;7442;50.840;3.396;2022-11-15T03:25:18;3.90;;;2.87;;
14704;SDS011;7442;50.840;3.396;2022-11-15T03:27:53;4.12;;;3.10;;
14704;SDS011;7442;50.840;3.396;2022-11-15T03:30:26;3.55;;;2.95;;
14704;SDS011;7442;50.840;3.396;2022-11-15T03:32:57;4.15;;;3.35;;
14704;SDS011;7442;50.840;3.396;2022-11-15T03:35:30;4.12;;;3.15;;
14704;SDS011;7442;50.840;3.396;2022-11-15T03:38:15;3.42;;;2.83;;
14704;SDS011;7442;50.840;3.396;2022-11-15T03:40:58;4.05;;;2.95;;
14704;SDS011;7442;50.840;3.396;2022-11-15T03:43:46;3.75;;;3.15;;
14704;SDS011;7442;50.840;3.396;2022-11-15T03:46:25;4.58;;;2.87;;
14704;SDS011;7442;50.840;3.396;2022-11-15T03:49:00;3.75;;;3.02;;
14704;SDS011;7442;50.840;3.396;2022-11-15T03:51:35;3.10;;;2.80;;
14704;SDS011;7442;50.840;3.396;2022-11-15T03:54:06;3.12;;;2.67;;
14704;SDS011;7442;50.840;3.396;2022-11-15T03:56:38;3.10;;;2.62;;
14704;SDS011;7442;50.840;3.396;2022-11-15T03:59:09;3.58;;;2.50;;
14704;SDS011;7442;50.840;3.396;2022-11-15T04:01:39;3.33;;;2.45;;
14704;SDS011;7442;50.840;3.396;2022-11-15T04:04:09;3.72;;;2.52;;
14704;SDS011;7442;50.840;3.396;2022-11-15T04:06:39;3.08;;;2.60;;
14704;SDS011;7442;50.840;3.396;2022-11-15T04:09:10;2.67;;;2.47;;
14704;SDS011;7442;50.840;3.396;2022-11-15T04:11:40;2.50;;;2.30;;
14704;SDS011;7442;50.840;3.396;2022-11-15T04:14:10;2.90;;;2.60;;
14704;SDS011;7442;50.840;3.396;2022-11-15T04:16:40;2.72;;;2.50;;
14704;SDS011;7442;50.840;3.396;2022-11-15T04:19:10;3.05;;;2.42;;
14704;SDS011;7442;50.840;3.396;2022-11-15T04:22:07;4.45;;;2.37;;
14704;SDS011;7442;50.840;3.396;2022-11-15T04:24:54;2.47;;;2.17;;
14704;SDS011;7442;50.840;3.396;2022-11-15T04:27:24;2.72;;;2.22;;
14704;SDS011;7442;50.840;3.396;2022-11-15T04:29:54;2.52;;;2.22;;
14704;SDS011;7442;50.840;3.396;2022-11-15T04:32:26;2.95;;;2.37;;
14704;SDS011;7442;50.840;3.396;2022-11-15T04:34:56;2.33;;;2.10;;
14704;SDS011;7442;50.840;3.396;2022-11-15T04:37:26;2.83;;;2.10;;
14704;SDS011;7442;50.840;3.396;2022-11-15T04:39:56;4.15;;;2.12;;
14704;SDS011;7442;50.840;3.396;2022-11-15T04:42:26;3.77;;;2.20;;
14704;SDS011;7442;50.840;3.396;2022-11-15T04:44:56;3.75;;;2.10;;
14704;SDS011;7442;50.840;3.396;2022-11-15T04:47:26;2.42;;;2.20;;
14704;SDS011;7442;50.840;3.396;2022-11-15T04:49:57;2.72;;;2.33;;
14704;SDS011;7442;50.840;3.396;2022-11-15T04:52:30;2.02;;;1.82;;
14704;SDS011;7442;50.840;3.396;2022-11-15T04:55:00;2.33;;;2.12;;
14704;SDS011;7442;50.840;3.396;2022-11-15T04:57:36;2.50;;;2.30;;
14704;SDS011;7442;50.840;3.396;2022-11-15T05:00:08;1.85;;;1.75;;
14704;SDS011;7442;50.840;3.396;2022-11-15T05:02:39;2.55;;;1.90;;
14704;SDS011;7442;50.840;3.396;2022-11-15T05:05:28;2.62;;;2.12;;
14704;SDS011;7442;50.840;3.396;2022-11-15T05:07:58;2.37;;;2.12;;
14704;SDS011;7442;50.840;3.396;2022-11-15T05:10:28;2.72;;;2.40;;
14704;SDS011;7442;50.840;3.396;2022-11-15T05:12:58;3.12;;;2.00;;
14704;SDS011;7442;50.840;3.396;2022-11-15T05:15:28;2.35;;;2.10;;
14704;SDS011;7442;50.840;3.396;2022-11-15T05:17:58;2.02;;;1.82;;
14704;SDS011;7442;50.840;3.396;2022-11-15T05:20:29;2.92;;;2.30;;
14704;SDS011;7442;50.840;3.396;2022-11-15T05:22:58;2.58;;;1.90;;
14704;SDS011;7442;50.840;3.396;2022-11-15T05:25:30;3.75;;;2.22;;
14704;SDS011;7442;50.840;3.396;2022-11-15T05:28:00;3.65;;;1.98;;
14704;SDS011;7442;50.840;3.396;2022-11-15T05:30:30;2.42;;;2.08;;
14704;SDS011;7442;50.840;3.396;2022-11-15T05:33:00;2.50;;;1.77;;
14704;SDS011;7442;50.840;3.396;2022-11-15T05:35:32;2.40;;;1.90;;
14704;SDS011;7442;50.840;3.396;2022-11-15T05:38:03;2.58;;;2.00;;
14704;SDS011;7442;50.840;3.396;2022-11-15T05:40:33;2.52;;;1.87;;
14704;SDS011;7442;50.840;3.396;2022-11-15T05:43:04;2.58;;;2.15;;
14704;SDS011;7442;50.840;3.396;2022-11-15T05:45:35;2.42;;;1.80;;
14704;SDS011;7442;50.840;3.396;2022-11-15T05:48:06;2.20;;;2.00;;
14704;SDS011;7442;50.840;3.396;2022-11-15T05:50:39;2.17;;;1.98;;
14704;SDS011;7442;50.840;3.396;2022-11-15T05:53:12;2.70;;;1.95;;
14704;SDS011;7442;50.840;3.396;2022-11-15T05:55:44;1.82;;;1.70;;
14704;SDS011;7442;50.840;3.396;2022-11-15T05:58:14;2.08;;;1.87;;
14704;SDS011;7442;50.840;3.396;2022-11-15T06:00:44;2.17;;;1.90;;
14704;SDS011;7442;50.840;3.396;2022-11-15T06:03:15;1.72;;;1.60;;
14704;SDS011;7442;50.840;3.396;2022-11-15T06:05:45;2.25;;;1.80;;
14704;SDS011;7442;50.840;3.396;2022-11-15T06:08:15;2.00;;;1.80;;
14704;SDS011;7442;50.840;3.396;2022-11-15T06:10:45;2.72;;;1.87;;
14704;SDS011;7442;50.840;3.396;2022-11-15T06:13:15;2.58;;;2.15;;
14704;SDS011;7442;50.840;3.396;2022-11-15T06:15:45;2.90;;;2.10;;
14704;SDS011;7442;50.840;3.396;2022-11-15T06:18:15;6.15;;;4.05;;
14704;SDS011;7442;50.840;3.396;2022-11-15T06:20:45;9.25;;;5.85;;
14704;SDS011;7442;50.840;3.396;2022-11-15T06:23:15;38.98;;;29.42;;
14704;SDS011;7442;50.840;3.396;2022-11-15T06:25:45;28.90;;;21.12;;
14704;SDS011;7442;50.840;3.396;2022-11-15T06:28:15;23.50;;;18.48;;
14704;SDS011;7442;50.840;3.396;2022-11-15T06:30:45;25.12;;;17.65;;
14704;SDS011;7442;50.840;3.396;2022-11-15T06:33:15;25.52;;;15.80;;
14704;SDS011;7442;50.840;3.396;2022-11-15T06:35:45;28.77;;;21.75;;
14704;SDS011;7442;50.840;3.396;2022-11-15T06:38:15;32.80;;;25.25;;
14704;SDS011;7442;50.840;3.396;2022-11-15T06:40:45;25.45;;;19.70;;
14704;SDS011;7442;50.840;3.396;2022-11-15T06:43:15;28.98;;;22.17;;
14704;SDS011;7442;50.840;3.396;2022-11-15T06:45:45;27.55;;;20.50;;
14704;SDS011;7442;50.840;3.396;2022-11-15T06:48:15;24.25;;;19.30;;
14704;SDS011;7442;50.840;3.396;2022-11-15T06:50:55;22.10;;;18.07;;
14704;SDS011;7442;50.840;3.396;2022-11-15T06:53:27;24.55;;;18.25;;
14704;SDS011;7442;50.840;3.396;2022-11-15T06:55:59;23.55;;;17.00;;
14704;SDS011;7442;50.840;3.396;2022-11-15T06:58:30;22.25;;;15.88;;
14704;SDS011;7442;50.840;3.396;2022-11-15T07:01:01;21.30;;;17.05;;
14704;SDS011;7442;50.840;3.396;2022-11-15T07:03:37;19.15;;;14.93;;
14704;SDS011;7442;50.840;3.396;2022-11-15T07:06:09;18.40;;;14.58;;
14704;SDS011;7442;50.840;3.396;2022-11-15T07:08:39;18.85;;;14.25;;
14704;SDS011;7442;50.840;3.396;2022-11-15T07:11:10;18.98;;;13.83;;
14704;SDS011;7442;50.840;3.396;2022-11-15T07:13:40;18.67;;;13.55;;
14704;SDS011;7442;50.840;3.396;2022-11-15T07:16:10;15.43;;;12.05;;
14704;SDS011;7442;50.840;3.396;2022-11-15T07:18:40;15.25;;;11.60;;
14704;SDS011;7442;50.840;3.396;2022-11-15T07:21:10;12.47;;;10.75;;
14704;SDS011;7442;50.840;3.396;2022-11-15T07:23:40;15.93;;;11.05;;
14704;SDS011;7442;50.840;3.396;2022-11-15T07:26:10;14.07;;;9.68;;
14704;SDS011;7442;50.840;3.396;2022-11-15T07:28:44;17.10;;;10.80;;
14704;SDS011;7442;50.840;3.396;2022-11-15T07:31:16;11.22;;;8.95;;
14704;SDS011;7442;50.840;3.396;2022-11-15T07:33:46;14.90;;;10.10;;
14704;SDS011;7442;50.840;3.396;2022-11-15T07:36:16;11.18;;;8.88;;
14704;SDS011;7442;50.840;3.396;2022-11-15T07:38:47;13.32;;;9.15;;
14704;SDS011;7442;50.840;3.396;2022-11-15T07:41:17;13.25;;;8.80;;
14704;SDS011;7442;50.840;3.396;2022-11-15T07:43:47;11.95;;;8.40;;
14704;SDS011;7442;50.840;3.396;2022-11-15T07:46:21;16.97;;;8.68;;
14704;SDS011;7442;50.840;3.396;2022-11-15T07:48:51;10.15;;;7.50;;
14704;SDS011;7442;50.840;3.396;2022-11-15T07:51:21;10.38;;;7.85;;
14704;SDS011;7442;50.840;3.396;2022-11-15T07:53:51;11.28;;;7.55;;
14704;SDS011;7442;50.840;3.396;2022-11-15T07:56:21;11.88;;;7.03;;
14704;SDS011;7442;50.840;3.396;2022-11-15T07:58:51;8.48;;;6.60;;
14704;SDS011;7442;50.840;3.396;2022-11-15T08:01:22;12.03;;;7.35;;
14704;SDS011;7442;50.840;3.396;2022-11-15T08:03:52;9.15;;;7.10;;
14704;SDS011;7442;50.840;3.396;2022-11-15T08:06:22;8.93;;;6.65;;
14704;SDS011;7442;50.840;3.396;2022-11-15T08:08:52;7.20;;;6.08;;
14704;SDS011;7442;50.840;3.396;2022-11-15T08:11:22;9.55;;;6.87;;
14704;SDS011;7442;50.840;3.396;2022-11-15T08:13:52;8.15;;;6.33;;
14704;SDS011;7442;50.840;3.396;2022-11-15T08:16:22;9.50;;;6.22;;
14704;SDS011;7442;50.840;3.396;2022-11-15T08:18:52;10.48;;;6.28;;
14704;SDS011;7442;50.840;3.396;2022-11-15T08:21:22;9.55;;;5.90;;
14704;SDS011;7442;50.840;3.396;2022-11-15T08:23:52;9.00;;;6.05;;
14704;SDS011;7442;50.840;3.396;2022-11-15T08:26:22;11.65;;;5.78;;
14704;SDS011;7442;50.840;3.396;2022-11-15T08:28:54;9.08;;;5.62;;
14704;SDS011;7442;50.840;3.396;2022-11-15T08:31:24;7.72;;;5.15;;
14704;SDS011;7442;50.840;3.396;2022-11-15T08:33:54;7.72;;;5.65;;
14704;SDS011;7442;50.840;3.396;2022-11-15T08:36:24;10.75;;;5.62;;
14704;SDS011;7442;50.840;3.396;2022-11-15T08:38:54;9.48;;;5.58;;
14704;SDS011;7442;50.840;3.396;2022-11-15T08:41:32;10.63;;;5.33;;
14704;SDS011;7442;50.840;3.396;2022-11-15T08:44:04;8.70;;;4.95;;
14704;SDS011;7442;50.840;3.396;2022-11-15T08:46:34;6.85;;;5.40;;
14704;SDS011;7442;50.840;3.396;2022-11-15T08:49:04;9.35;;;4.75;;
14704;SDS011;7442;50.840;3.396;2022-11-15T08:51:34;6.97;;;4.55;;
14704;SDS011;7442;50.840;3.396;2022-11-15T08:54:04;7.92;;;5.03;;
14704;SDS011;7442;50.840;3.396;2022-11-15T08:56:34;6.65;;;4.70;;
14704;SDS011;7442;50.840;3.396;2022-11-15T08:59:04;6.35;;;3.80;;
14704;SDS011;7442;50.840;3.396;2022-11-15T09:01:34;5.72;;;3.80;;
14704;SDS011;7442;50.840;3.396;2022-11-15T09:04:05;9.35;;;4.12;;
14704;SDS011;7442;50.840;3.396;2022-11-15T09:06:35;7.65;;;4.42;;
14704;SDS011;7442;50.840;3.396;2022-11-15T09:09:05;9.23;;;4.62;;
14704;SDS011;7442;50.840;3.396;2022-11-15T09:11:42;7.50;;;4.50;;
14704;SDS011;7442;50.840;3.396;2022-11-15T09:14:12;7.03;;;4.45;;
14704;SDS011;7442;50.840;3.396;2022-11-15T09:16:43;5.92;;;4.17;;
14704;SDS011;7442;50.840;3.396;2022-11-15T09:19:13;7.37;;;4.20;;
14704;SDS011;7442;50.840;3.396;2022-11-15T09:21:43;7.90;;;4.15;;
14704;SDS011;7442;50.840;3.396;2022-11-15T09:24:19;9.48;;;4.50;;
14704;SDS011;7442;50.840;3.396;2022-11-15T09:26:50;7.55;;;4.65;;
14704;SDS011;7442;50.840;3.396;2022-11-15T09:29:20;8.33;;;3.95;;
14704;SDS011;7442;50.840;3.396;2022-11-15T09:31:53;6.65;;;3.85;;
14704;SDS011;7442;50.840;3.396;2022-11-15T09:34:23;6.20;;;4.00;;
14704;SDS011;7442;50.840;3.396;2022-11-15T09:36:54;5.22;;;3.40;;
14704;SDS011;7442;50.840;3.396;2022-11-15T09:39:30;5.53;;;3.80;;
14704;SDS011;7442;50.840;3.396;2022-11-15T09:42:07;5.72;;;3.50;;
14704;SDS011;7442;50.840;3.396;2022-11-15T09:44:50;7.50;;;3.70;;
14704;SDS011;7442;50.840;3.396;2022-11-15T09:47:28;5.80;;;3.67;;
14704;SDS011;7442;50.840;3.396;2022-11-15T09:50:01;4.08;;;2.92;;
14704;SDS011;7442;50.840;3.396;2022-11-15T09:52:34;5.08;;;3.58;;
14704;SDS011;7442;50.840;3.396;2022-11-15T09:55:07;6.22;;;2.80;;
14704;SDS011;7442;50.840;3.396;2022-11-15T09:57:39;5.15;;;3.05;;
14704;SDS011;7442;50.840;3.396;2022-11-15T10:02:58;5.70;;;3.30;;
14704;SDS011;7442;50.840;3.396;2022-11-15T10:05:28;4.37;;;3.05;;
14704;SDS011;7442;50.840;3.396;2022-11-15T10:08:05;5.80;;;2.95;;
14704;SDS011;7442;50.840;3.396;2022-11-15T10:10:38;3.77;;;3.10;;
14704;SDS011;7442;50.840;3.396;2022-11-15T10:13:16;5.30;;;2.70;;
14704;SDS011;7442;50.840;3.396;2022-11-15T10:15:43;6.03;;;3.40;;
14704;SDS011;7442;50.840;3.396;2022-11-15T10:18:19;6.67;;;3.12;;
14704;SDS011;7442;50.840;3.396;2022-11-15T10:21:00;5.20;;;3.10;;
14704;SDS011;7442;50.840;3.396;2022-11-15T10:23:50;5.40;;;3.00;;
14704;SDS011;7442;50.840;3.396;2022-11-15T10:26:22;9.03;;;3.02;;
14704;SDS011;7442;50.840;3.396;2022-11-15T10:28:53;4.20;;;2.35;;
14704;SDS011;7442;50.840;3.396;2022-11-15T10:34:16;6.03;;;2.80;;
14704;SDS011;7442;50.840;3.396;2022-11-15T10:36:58;5.12;;;2.77;;
14704;SDS011;7442;50.840;3.396;2022-11-15T10:39:30;4.30;;;2.58;;
14704;SDS011;7442;50.840;3.396;2022-11-15T10:44:55;5.33;;;2.65;;
14704;SDS011;7442;50.840;3.396;2022-11-15T10:47:26;7.22;;;2.50;;
14704;SDS011;7442;50.840;3.396;2022-11-15T10:50:02;4.28;;;2.55;;
14704;SDS011;7442;50.840;3.396;2022-11-15T10:52:34;6.00;;;2.27;;
14704;SDS011;7442;50.840;3.396;2022-11-15T10:57:49;6.25;;;2.35;;
14704;SDS011;7442;50.840;3.396;2022-11-15T11:00:29;4.20;;;2.10;;
14704;SDS011;7442;50.840;3.396;2022-11-15T11:03:04;4.20;;;2.40;;
14704;SDS011;7442;50.840;3.396;2022-11-15T11:05:37;8.10;;;2.60;;
14704;SDS011;7442;50.840;3.396;2022-11-15T11:10:55;3.95;;;2.17;;
14704;SDS011;7442;50.840;3.396;2022-11-15T11:13:28;4.00;;;2.20;;
14704;SDS011;7442;50.840;3.396;2022-11-15T11:19:13;5.25;;;2.35;;
14704;SDS011;7442;50.840;3.396;2022-11-15T11:21:44;6.17;;;2.40;;
14704;SDS011;7442;50.840;3.396;2022-11-15T11:29:55;5.20;;;2.50;;
14704;SDS011;7442;50.840;3.396;2022-11-15T11:32:40;7.00;;;2.27;;
14704;SDS011;7442;50.840;3.396;2022-11-15T11:35:13;5.92;;;2.33;;
14704;SDS011;7442;50.840;3.396;2022-11-15T11:37:51;5.97;;;2.17;;
14704;SDS011;7442;50.840;3.396;2022-11-15T11:40:34;4.12;;;2.10;;
14704;SDS011;7442;50.840;3.396;2022-11-15T11:45:58;3.75;;;1.80;;
14704;SDS011;7442;50.840;3.396;2022-11-15T11:48:45;3.30;;;1.93;;
14704;SDS011;7442;50.840;3.396;2022-11-15T11:51:22;3.10;;;1.82;;
14704;SDS011;7442;50.840;3.396;2022-11-15T11:53:54;4.37;;;2.00;;
14704;SDS011;7442;50.840;3.396;2022-11-15T11:59:07;4.22;;;2.08;;
14704;SDS011;7442;50.840;3.396;2022-11-15T12:01:56;3.02;;;1.67;;
14704;SDS011;7442;50.840;3.396;2022-11-15T12:04:34;4.37;;;2.00;;
14704;SDS011;7442;50.840;3.396;2022-11-15T12:07:15;3.35;;;2.00;;
14704;SDS011;7442;50.840;3.396;2022-11-15T12:12:36;2.95;;;1.60;;
14704;SDS011;7442;50.840;3.396;2022-11-15T12:15:19;3.67;;;1.87;;
14704;SDS011;7442;50.840;3.396;2022-11-15T12:17:47;6.17;;;1.95;;
14704;SDS011;7442;50.840;3.396;2022-11-15T12:20:25;4.92;;;2.00;;
14704;SDS011;7442;50.840;3.396;2022-11-15T12:23:22;2.80;;;1.70;;
14704;SDS011;7442;50.840;3.396;2022-11-15T12:26:26;5.10;;;1.60;;
14704;SDS011;7442;50.840;3.396;2022-11-15T12:31:20;3.67;;;1.72;;
14704;SDS011;7442;50.840;3.396;2022-11-15T12:34:04;3.08;;;1.80;;
14704;SDS011;7442;50.840;3.396;2022-11-15T12:36:51;6.00;;;1.60;;
14704;SDS011;7442;50.840;3.396;2022-11-15T12:39:21;2.95;;;1.60;;
14704;SDS011;7442;50.840;3.396;2022-11-15T12:47:24;4.12;;;1.82;;
14704;SDS011;7442;50.840;3.396;2022-11-15T12:52:24;2.40;;;1.67;;
14704;SDS011;7442;50.840;3.396;2022-11-15T12:54:56;7.65;;;1.40;;
14704;SDS011;7442;50.840;3.396;2022-11-15T12:57:35;4.25;;;1.70;;
14704;SDS011;7442;50.840;3.396;2022-11-15T13:02:45;2.58;;;1.67;;
14704;SDS011;7442;50.840;3.396;2022-11-15T13:07:57;3.30;;;1.90;;
14704;SDS011;7442;50.840;3.396;2022-11-15T13:10:32;4.30;;;2.00;;
14704;SDS011;7442;50.840;3.396;2022-11-15T13:13:03;4.03;;;1.40;;
14704;SDS011;7442;50.840;3.396;2022-11-15T13:15:43;2.40;;;1.82;;
14704;SDS011;7442;50.840;3.396;2022-11-15T13:18:28;2.70;;;1.40;;
14704;SDS011;7442;50.840;3.396;2022-11-15T13:21:03;6.10;;;1.87;;
14704;SDS011;7442;50.840;3.396;2022-11-15T13:23:37;2.77;;;1.25;;
14704;SDS011;7442;50.840;3.396;2022-11-15T13:26:14;4.62;;;1.45;;
14704;SDS011;7442;50.840;3.396;2022-11-15T13:28:49;4.30;;;1.60;;
14704;SDS011;7442;50.840;3.396;2022-11-15T13:31:28;5.33;;;1.57;;
14704;SDS011;7442;50.840;3.396;2022-11-15T13:37:02;2.60;;;1.85;;
14704;SDS011;7442;50.840;3.396;2022-11-15T13:39:33;2.40;;;1.45;;
14704;SDS011;7442;50.840;3.396;2022-11-15T13:42:13;1.95;;;1.10;;
14704;SDS011;7442;50.840;3.396;2022-11-15T13:44:38;3.75;;;1.50;;
14704;SDS011;7442;50.840;3.396;2022-11-15T13:47:16;2.58;;;1.35;;
14704;SDS011;7442;50.840;3.396;2022-11-15T13:49:48;3.12;;;1.40;;
14704;SDS011;7442;50.840;3.396;2022-11-15T13:52:18;3.52;;;1.37;;
14704;SDS011;7442;50.840;3.396;2022-11-15T13:55:03;2.80;;;1.50;;
14704;SDS011;7442;50.840;3.396;2022-11-15T13:57:42;2.42;;;1.27;;
14704;SDS011;7442;50.840;3.396;2022-11-15T14:03:10;1.27;;;1.10;;
14704;SDS011;7442;50.840;3.396;2022-11-15T14:11:34;2.20;;;1.30;;
14704;SDS011;7442;50.840;3.396;2022-11-15T14:16:40;3.17;;;1.52;;
14704;SDS011;7442;50.840;3.396;2022-11-15T14:25:05;4.45;;;1.75;;
14704;SDS011;7442;50.840;3.396;2022-11-15T14:28:07;3.62;;;1.40;;
14704;SDS011;7442;50.840;3.396;2022-11-15T14:30:45;2.85;;;1.50;;
14704;SDS011;7442;50.840;3.396;2022-11-15T14:33:27;2.70;;;1.40;;
14704;SDS011;7442;50.840;3.396;2022-11-15T14:36:11;4.08;;;1.20;;
14704;SDS011;7442;50.840;3.396;2022-11-15T14:38:35;10.10;;;1.47;;
14704;SDS011;7442;50.840;3.396;2022-11-15T14:41:05;1.77;;;1.20;;
14704;SDS011;7442;50.840;3.396;2022-11-15T14:43:37;6.05;;;1.55;;
14704;SDS011;7442;50.840;3.396;2022-11-15T14:46:07;5.72;;;1.50;;
14704;SDS011;7442;50.840;3.396;2022-11-15T14:48:37;2.20;;;1.22;;
14704;SDS011;7442;50.840;3.396;2022-11-15T14:51:13;2.83;;;1.20;;
14704;SDS011;7442;50.840;3.396;2022-11-15T14:53:45;2.52;;;1.32;;
14704;SDS011;7442;50.840;3.396;2022-11-15T14:56:15;1.87;;;1.32;;
14704;SDS011;7442;50.840;3.396;2022-11-15T14:58:46;2.17;;;1.22;;
14704;SDS011;7442;50.840;3.396;2022-11-15T15:01:25;3.87;;;1.37;;
14704;SDS011;7442;50.840;3.396;2022-11-15T15:03:55;3.05;;;1.55;;
14704;SDS011;7442;50.840;3.396;2022-11-15T15:06:26;3.58;;;1.57;;
14704;SDS011;7442;50.840;3.396;2022-11-15T15:08:57;3.17;;;1.62;;
14704;SDS011;7442;50.840;3.396;2022-11-15T15:11:28;3.72;;;1.42;;
14704;SDS011;7442;50.840;3.396;2022-11-15T15:14:00;3.20;;;1.70;;
14704;SDS011;7442;50.840;3.396;2022-11-15T15:16:31;4.40;;;1.85;;
14704;SDS011;7442;50.840;3.396;2022-11-15T15:19:01;7.05;;;2.08;;
14704;SDS011;7442;50.840;3.396;2022-11-15T15:21:31;6.35;;;2.27;;
14704;SDS011;7442;50.840;3.396;2022-11-15T15:24:01;8.65;;;2.20;;
14704;SDS011;7442;50.840;3.396;2022-11-15T15:26:31;5.90;;;2.30;;
14704;SDS011;7442;50.840;3.396;2022-11-15T15:29:05;8.65;;;2.30;;
14704;SDS011;7442;50.840;3.396;2022-11-15T15:31:37;8.33;;;2.42;;
14704;SDS011;7442;50.840;3.396;2022-11-15T15:34:07;5.12;;;2.50;;
14704;SDS011;7442;50.840;3.396;2022-11-15T15:36:37;10.32;;;2.50;;
14704;SDS011;7442;50.840;3.396;2022-11-15T15:39:08;5.30;;;2.87;;
14704;SDS011;7442;50.840;3.396;2022-11-15T15:41:40;42.73;;;25.05;;
14704;SDS011;7442;50.840;3.396;2022-11-15T15:44:10;52.88;;;28.30;;
14704;SDS011;7442;50.840;3.396;2022-11-15T15:46:40;46.77;;;26.42;;
14704;SDS011;7442;50.840;3.396;2022-11-15T15:49:10;44.15;;;26.10;;
14704;SDS011;7442;50.840;3.396;2022-11-15T15:51:40;42.45;;;25.05;;
14704;SDS011;7442;50.840;3.396;2022-11-15T15:54:11;41.88;;;23.75;;
14704;SDS011;7442;50.840;3.396;2022-11-15T15:56:42;38.30;;;21.97;;
14704;SDS011;7442;50.840;3.396;2022-11-15T15:59:12;37.08;;;19.45;;
14704;SDS011;7442;50.840;3.396;2022-11-15T16:01:42;36.95;;;20.62;;
14704;SDS011;7442;50.840;3.396;2022-11-15T16:04:13;36.05;;;20.72;;
14704;SDS011;7442;50.840;3.396;2022-11-15T16:06:43;39.38;;;19.57;;
14704;SDS011;7442;50.840;3.396;2022-11-15T16:09:17;29.30;;;17.67;;
14704;SDS011;7442;50.840;3.396;2022-11-15T16:11:49;29.95;;;17.35;;
14704;SDS011;7442;50.840;3.396;2022-11-15T16:14:19;31.68;;;17.82;;
14704;SDS011;7442;50.840;3.396;2022-11-15T16:16:49;27.85;;;16.20;;
14704;SDS011;7442;50.840;3.396;2022-11-15T16:19:24;26.05;;;15.30;;
14704;SDS011;7442;50.840;3.396;2022-11-15T16:21:54;25.50;;;14.33;;
14704;SDS011;7442;50.840;3.396;2022-11-15T16:24:24;24.47;;;14.73;;
14704;SDS011;7442;50.840;3.396;2022-11-15T16:26:54;26.10;;;13.95;;
14704;SDS011;7442;50.840;3.396;2022-11-15T16:29:24;23.75;;;13.20;;
14704;SDS011;7442;50.840;3.396;2022-11-15T16:31:54;22.90;;;12.10;;
14704;SDS011;7442;50.840;3.396;2022-11-15T16:34:25;20.25;;;11.95;;
14704;SDS011;7442;50.840;3.396;2022-11-15T16:36:55;19.87;;;11.93;;
14704;SDS011;7442;50.840;3.396;2022-11-15T16:39:25;20.92;;;11.10;;
14704;SDS011;7442;50.840;3.396;2022-11-15T16:42:02;19.35;;;10.65;;
14704;SDS011;7442;50.840;3.396;2022-11-15T16:44:29;18.90;;;10.05;;
14704;SDS011;7442;50.840;3.396;2022-11-15T16:46:59;22.30;;;11.33;;
14704;SDS011;7442;50.840;3.396;2022-11-15T16:49:31;20.72;;;10.55;;
14704;SDS011;7442;50.840;3.396;2022-11-15T16:52:03;17.12;;;10.28;;